createdAt,value
2022-11-03T00:00:12.603Z,79.94
2022-11-03T00:01:09.124Z,79.74
2022-11-03T00:02:09.134Z,79.84
2022-11-03T00:03:09.548Z,79.74
2022-11-03T00:04:09.024Z,79.94
2022-11-03T00:05:08.978Z,79.94
2022-11-03T00:06:09.001Z,79.33
2022-11-03T00:07:08.941Z,79.98
2022-11-03T00:08:09.003Z,80.08
2022-11-03T00:09:08.919Z,80.18
2022-11-03T00:10:08.995Z,80.18
2022-11-03T00:11:08.893Z,79.98
2022-11-03T00:12:08.888Z,80.08
2022-11-03T00:13:09.145Z,80.18
2022-11-03T00:14:08.865Z,80.18
2022-11-03T00:15:08.856Z,80.08
2022-11-03T00:16:08.850Z,80.08
2022-11-03T00:17:08.833Z,80.38
2022-11-03T00:18:08.820Z,80.08
2022-11-03T00:19:09.412Z,80.02
2022-11-03T00:20:08.799Z,80.22
2022-11-03T00:21:08.780Z,80.22
2022-11-03T00:22:08.804Z,79.91
2022-11-03T00:23:08.955Z,79.91
2022-11-03T00:24:08.757Z,79.91
2022-11-03T00:25:08.743Z,80.02
2022-11-03T00:26:08.754Z,80.11
2022-11-03T00:27:08.738Z,80.16
2022-11-03T00:28:08.787Z,80.05
2022-11-03T00:29:08.696Z,80.05
2022-11-03T00:30:08.682Z,79.54
2022-11-03T00:31:08.674Z,79.54
2022-11-03T00:32:08.655Z,79.64
2022-11-03T00:33:08.954Z,80.05
2022-11-03T00:34:08.668Z,79.85
2022-11-03T00:35:08.627Z,79.48
2022-11-03T00:36:08.620Z,80.19
2022-11-03T00:37:08.623Z,80.09
2022-11-03T00:38:08.589Z,80.09
2022-11-03T00:39:08.583Z,80.09
2022-11-03T00:40:08.599Z,80.50
2022-11-03T00:41:08.561Z,80.64
2022-11-03T00:42:08.567Z,80.64
2022-11-03T00:43:08.805Z,80.74
2022-11-03T00:44:08.525Z,80.64
2022-11-03T00:45:08.505Z,80.43
2022-11-03T00:46:08.515Z,80.43
2022-11-03T00:47:08.505Z,80.54
2022-11-03T00:48:08.477Z,80.64
2022-11-03T00:49:08.486Z,80.54
2022-11-03T00:50:08.446Z,80.43
2022-11-03T00:51:08.439Z,80.43
2022-11-03T00:52:08.441Z,80.74
2022-11-03T00:53:08.717Z,80.78
2022-11-03T00:54:08.410Z,80.74
2022-11-03T00:55:08.395Z,80.74
2022-11-03T00:56:08.376Z,80.74
2022-11-03T00:57:08.373Z,80.74
2022-11-03T00:58:08.410Z,80.74
2022-11-03T00:59:08.350Z,80.74
2022-11-03T01:00:08.337Z,80.64
2022-11-03T01:01:08.368Z,80.54
2022-11-03T01:02:08.426Z,80.64
2022-11-03T01:03:08.520Z,80.74
2022-11-03T01:04:08.367Z,80.33
2022-11-03T01:05:08.280Z,80.43
2022-11-03T01:06:08.281Z,80.23
2022-11-03T01:07:08.259Z,80.33
2022-11-03T01:08:08.243Z,80.13
2022-11-03T01:09:08.235Z,80.23
2022-11-03T01:10:08.232Z,80.13
2022-11-03T01:11:08.209Z,80.13
2022-11-03T01:12:08.191Z,79.62
2022-11-03T01:13:08.633Z,79.72
2022-11-03T01:14:08.200Z,80.07
2022-11-03T01:15:08.160Z,80.33
2022-11-03T01:16:08.245Z,80.13
2022-11-03T01:17:08.135Z,80.23
2022-11-03T01:18:08.121Z,80.07
2022-11-03T01:19:08.133Z,80.07
2022-11-03T01:20:08.114Z,80.07
2022-11-03T01:21:08.100Z,79.66
2022-11-03T01:22:11.100Z,80.37
2022-11-03T01:23:08.404Z,80.37
2022-11-03T01:24:08.070Z,80.30
2022-11-03T01:25:08.049Z,80.30
2022-11-03T01:26:08.035Z,80.41
2022-11-03T01:27:08.029Z,80.30
2022-11-03T01:28:08.193Z,80.20
2022-11-03T01:29:07.999Z,80.51
2022-11-03T01:30:08.025Z,80.65
2022-11-03T01:31:07.977Z,80.55
2022-11-03T01:32:07.971Z,80.51
2022-11-03T01:33:08.481Z,80.65
2022-11-03T01:34:07.971Z,80.44
2022-11-03T01:35:07.938Z,80.85
2022-11-03T01:36:07.925Z,81.05
2022-11-03T01:37:07.916Z,80.89
2022-11-03T01:38:07.936Z,80.89
2022-11-03T01:39:07.892Z,80.79
2022-11-03T01:40:07.921Z,80.99
2022-11-03T01:41:07.864Z,80.89
2022-11-03T01:42:07.859Z,80.79
2022-11-03T01:43:08.147Z,80.89
2022-11-03T01:44:07.864Z,80.79
2022-11-03T01:45:07.827Z,80.79
2022-11-03T01:46:07.912Z,81.91
2022-11-03T01:47:07.817Z,81.71
2022-11-03T01:48:07.799Z,81.81
2022-11-03T01:49:07.781Z,81.71
2022-11-03T01:50:07.894Z,81.81
2022-11-03T01:51:07.754Z,82.12
2022-11-03T01:52:07.790Z,81.81
2022-11-03T01:53:08.210Z,81.77
2022-11-03T01:54:07.720Z,81.71
2022-11-03T01:55:07.706Z,81.87
2022-11-03T01:56:07.703Z,81.77
2022-11-03T01:57:07.681Z,81.77
2022-11-03T01:58:07.698Z,80.75
2022-11-03T01:59:07.663Z,80.85
2022-11-03T02:00:07.654Z,81.16
2022-11-03T02:01:07.707Z,80.85
2022-11-03T02:02:07.920Z,80.85
2022-11-03T02:03:08.114Z,81.12
2022-11-03T02:04:07.683Z,80.61
2022-11-03T02:05:07.591Z,80.71
2022-11-03T02:06:07.585Z,80.91
2022-11-03T02:07:07.573Z,80.71
2022-11-03T02:09:07.551Z,80.71
2022-11-03T02:10:07.593Z,80.61
2022-11-03T02:11:07.536Z,80.37
2022-11-03T02:12:07.516Z,80.27
2022-11-03T02:13:07.684Z,80.16
2022-11-03T02:14:07.498Z,80.27
2022-11-03T02:15:07.503Z,80.27
2022-11-03T02:16:07.484Z,79.66
2022-11-03T02:17:07.481Z,80.37
2022-11-03T02:18:07.471Z,79.55
2022-11-03T02:19:07.450Z,79.86
2022-11-03T02:20:07.430Z,80.16
2022-11-03T02:21:07.413Z,80.07
2022-11-03T02:22:07.436Z,79.86
2022-11-03T02:23:07.822Z,80.27
2022-11-03T02:24:07.374Z,79.96
2022-11-03T02:25:07.372Z,80.07
2022-11-03T02:26:07.355Z,80.07
2022-11-03T02:27:07.348Z,80.23
2022-11-03T02:28:07.452Z,79.96
2022-11-03T02:29:07.924Z,80.13
2022-11-03T02:30:07.326Z,80.16
2022-11-03T02:31:07.292Z,80.02
2022-11-03T02:32:07.294Z,80.02
2022-11-03T02:33:07.592Z,80.13
2022-11-03T02:34:07.297Z,80.02
2022-11-03T02:35:07.257Z,80.13
2022-11-03T02:36:07.245Z,80.23
2022-11-03T02:37:07.249Z,80.13
2022-11-03T02:38:07.223Z,80.13
2022-11-03T02:39:07.213Z,80.84
2022-11-03T02:40:07.234Z,80.23
2022-11-03T02:41:07.201Z,79.82
2022-11-03T02:42:07.177Z,80.33
2022-11-03T02:43:07.512Z,80.23
2022-11-03T02:44:07.196Z,80.13
2022-11-03T02:45:07.139Z,79.93
2022-11-03T02:46:07.265Z,80.64
2022-11-03T02:47:07.116Z,80.02
2022-11-03T02:48:07.103Z,79.79
2022-11-03T02:49:07.099Z,79.93
2022-11-03T02:50:07.120Z,80.02
2022-11-03T02:51:07.076Z,80.13
2022-11-03T02:52:07.074Z,79.82
2022-11-03T02:53:07.303Z,79.82
2022-11-03T02:54:07.036Z,80.23
2022-11-03T02:55:07.025Z,79.82
2022-11-03T02:56:07.010Z,79.82
2022-11-03T02:57:07.010Z,80.23
2022-11-03T02:58:07.033Z,80.23
2022-11-03T02:59:06.977Z,80.02
2022-11-03T03:00:06.966Z,79.99
2022-11-03T03:01:07.121Z,80.29
2022-11-03T03:02:07.149Z,79.99
2022-11-03T03:03:07.302Z,80.29
2022-11-03T03:04:07.050Z,79.79
2022-11-03T03:05:06.916Z,79.99
2022-11-03T03:06:06.939Z,79.99
2022-11-03T03:07:06.889Z,79.89
2022-11-03T03:08:06.937Z,80.02
2022-11-03T03:09:06.868Z,80.09
2022-11-03T03:10:06.904Z,79.79
2022-11-03T03:11:06.870Z,79.82
2022-11-03T03:12:06.825Z,80.02
2022-11-03T03:13:07.046Z,80.19
2022-11-03T03:14:06.810Z,80.23
2022-11-03T03:15:06.793Z,79.79
2022-11-03T03:16:06.837Z,79.79
2022-11-03T03:17:06.773Z,79.99
2022-11-03T03:18:06.762Z,79.79
2022-11-03T03:19:06.752Z,79.99
2022-11-03T03:20:06.733Z,80.29
2022-11-03T03:21:06.735Z,79.79
2022-11-03T03:22:06.776Z,79.99
2022-11-03T03:23:09.063Z,79.99
2022-11-03T03:24:06.694Z,79.99
2022-11-03T03:25:06.683Z,79.99
2022-11-03T03:26:06.666Z,79.99
2022-11-03T03:27:06.675Z,79.79
2022-11-03T03:28:06.660Z,79.58
2022-11-03T03:29:06.637Z,79.58
2022-11-03T03:30:06.625Z,79.58
2022-11-03T03:31:06.613Z,79.79
2022-11-03T03:32:06.626Z,79.79
2022-11-03T03:33:06.922Z,79.95
2022-11-03T03:34:23.691Z,79.89
2022-11-03T03:35:07.568Z,79.99
2022-11-03T03:36:06.551Z,79.99
2022-11-03T03:37:06.550Z,79.79
2022-11-03T03:38:06.933Z,80.19
2022-11-03T03:39:06.546Z,80.29
2022-11-03T03:40:06.546Z,79.79
2022-11-03T03:41:10.520Z,79.99
2022-11-03T03:42:06.485Z,79.99
2022-11-03T03:43:06.653Z,79.79
2022-11-03T03:44:06.463Z,79.79
2022-11-03T03:45:06.468Z,80.19
2022-11-03T03:46:06.470Z,80.09
2022-11-03T03:47:06.500Z,80.09
2022-11-03T03:48:06.601Z,80.09
2022-11-03T03:49:06.473Z,80.80
2022-11-03T03:50:06.397Z,80.09
2022-11-03T03:51:06.379Z,79.99
2022-11-03T03:52:06.402Z,80.09
2022-11-03T03:53:06.359Z,79.89
2022-11-03T03:54:06.371Z,79.99
2022-11-03T03:55:06.338Z,80.13
2022-11-03T03:56:06.425Z,80.09
2022-11-03T03:57:06.319Z,80.09
2022-11-03T03:58:06.745Z,80.09
2022-11-03T03:59:06.286Z,80.09
2022-11-03T04:00:06.279Z,80.09
2022-11-03T04:01:06.282Z,79.99
2022-11-03T04:02:06.465Z,80.13
2022-11-03T04:03:06.248Z,79.99
2022-11-03T04:04:06.253Z,79.89
2022-11-03T04:05:06.222Z,80.09
2022-11-03T04:06:06.213Z,79.99
2022-11-03T04:07:06.211Z,80.09
2022-11-03T04:08:06.515Z,80.09
2022-11-03T04:09:06.180Z,80.09
2022-11-03T04:10:06.236Z,80.19
2022-11-03T04:11:06.165Z,80.09
2022-11-03T04:12:06.142Z,79.79
2022-11-03T04:13:06.128Z,80.19
2022-11-03T04:14:06.170Z,79.99
2022-11-03T04:15:06.106Z,79.99
2022-11-03T04:16:06.132Z,79.99
2022-11-03T04:17:06.082Z,80.09
2022-11-03T04:18:06.464Z,79.89
2022-11-03T04:19:06.087Z,80.19
2022-11-03T04:20:06.049Z,79.99
2022-11-03T04:21:06.039Z,80.02
2022-11-03T04:22:06.042Z,80.13
2022-11-03T04:23:06.019Z,80.09
2022-11-03T04:24:06.022Z,80.13
2022-11-03T04:25:05.999Z,80.13
2022-11-03T04:26:06.006Z,79.89
2022-11-03T04:27:05.969Z,80.23
2022-11-03T04:28:06.294Z,80.02
2022-11-03T04:29:05.947Z,80.23
2022-11-03T04:30:05.962Z,80.13
2022-11-03T04:31:05.921Z,80.09
2022-11-03T04:32:05.926Z,80.23
2022-11-03T04:33:05.929Z,80.02
2022-11-03T04:34:05.914Z,80.54
2022-11-03T04:35:05.881Z,80.37
2022-11-03T04:36:05.877Z,79.93
2022-11-03T04:37:05.858Z,80.13
2022-11-03T04:38:06.290Z,80.23
2022-11-03T04:39:05.827Z,80.23
2022-11-03T04:40:05.863Z,80.02
2022-11-03T04:41:05.808Z,80.02
2022-11-03T04:42:05.830Z,80.16
2022-11-03T04:43:06.083Z,80.16
2022-11-03T04:44:05.774Z,80.16
2022-11-03T04:45:05.773Z,80.07
2022-11-03T04:46:05.801Z,80.07
2022-11-03T04:47:05.742Z,80.16
2022-11-03T04:48:05.726Z,79.55
2022-11-03T04:49:05.740Z,80.27
2022-11-03T04:50:05.712Z,79.86
2022-11-03T04:51:05.701Z,80.27
2022-11-03T04:52:05.717Z,80.16
2022-11-03T04:53:05.989Z,80.16
2022-11-03T04:54:05.663Z,80.16
2022-11-03T04:55:05.648Z,80.16
2022-11-03T04:56:07.501Z,79.86
2022-11-03T04:57:05.627Z,79.66
2022-11-03T04:58:05.670Z,79.75
2022-11-03T04:59:05.603Z,80.16
2022-11-03T05:00:05.587Z,80.30
2022-11-03T05:01:05.627Z,80.16
2022-11-03T05:02:05.685Z,79.75
2022-11-03T05:03:05.556Z,79.66
2022-11-03T05:04:05.600Z,80.16
2022-11-03T05:05:05.533Z,79.55
2022-11-03T05:06:05.525Z,79.86
2022-11-03T05:07:05.508Z,79.75
2022-11-03T05:08:05.543Z,80.37
2022-11-03T05:09:05.492Z,79.86
2022-11-03T05:10:05.491Z,79.96
2022-11-03T05:11:05.470Z,80.27
2022-11-03T05:12:05.455Z,80.27
2022-11-03T05:13:05.781Z,80.47
2022-11-03T05:14:05.455Z,80.37
2022-11-03T05:15:05.418Z,80.37
2022-11-03T05:16:05.456Z,80.37
2022-11-03T05:17:05.411Z,80.27
2022-11-03T05:18:05.385Z,80.27
2022-11-03T05:19:05.424Z,80.47
2022-11-03T05:20:05.357Z,80.27
2022-11-03T05:21:05.349Z,80.16
2022-11-03T05:22:05.364Z,80.37
2022-11-03T05:23:05.866Z,79.96
2022-11-03T05:24:05.387Z,80.16
2022-11-03T05:25:05.309Z,80.27
2022-11-03T05:26:05.307Z,80.27
2022-11-03T05:27:05.278Z,80.27
2022-11-03T05:28:05.741Z,80.27
2022-11-03T05:29:05.262Z,80.37
2022-11-03T05:30:05.279Z,80.47
2022-11-03T05:31:05.235Z,80.37
2022-11-03T05:32:05.235Z,80.27
2022-11-03T05:33:05.209Z,80.16
2022-11-03T05:34:05.369Z,80.37
2022-11-03T05:35:05.194Z,80.27
2022-11-03T05:36:05.176Z,80.37
2022-11-03T05:37:05.170Z,80.37
2022-11-03T05:38:05.514Z,80.27
2022-11-03T05:39:05.141Z,80.27
2022-11-03T05:40:05.186Z,80.37
2022-11-03T05:41:05.118Z,80.37
2022-11-03T05:42:05.110Z,80.27
2022-11-03T05:43:09.716Z,80.27
2022-11-03T05:44:06.110Z,80.16
2022-11-03T05:45:05.076Z,79.55
2022-11-03T05:46:08.174Z,79.66
2022-11-03T05:47:07.458Z,80.37
2022-11-03T05:48:05.391Z,79.75
2022-11-03T05:49:05.034Z,79.75
2022-11-03T05:50:05.049Z,79.55
2022-11-03T05:51:05.082Z,79.66
2022-11-03T05:52:05.002Z,79.66
2022-11-03T05:53:04.973Z,80.16
2022-11-03T05:54:04.977Z,79.96
2022-11-03T05:55:04.954Z,80.07
2022-11-03T05:56:04.954Z,80.07
2022-11-03T05:57:04.935Z,80.30
2022-11-03T05:58:05.326Z,80.27
2022-11-03T05:59:04.910Z,80.37
2022-11-03T06:00:04.924Z,80.07
2022-11-03T06:01:04.892Z,79.86
2022-11-03T06:02:05.001Z,80.16
2022-11-03T06:03:04.866Z,79.55
2022-11-03T06:04:04.911Z,80.16
2022-11-03T06:05:04.839Z,80.07
2022-11-03T06:06:04.833Z,80.16
2022-11-03T06:07:04.831Z,80.27
2022-11-03T06:08:05.193Z,80.27
2022-11-03T06:09:04.811Z,80.10
2022-11-03T06:10:04.844Z,80.16
2022-11-03T06:11:04.784Z,80.37
2022-11-03T06:12:04.764Z,80.16
2022-11-03T06:13:05.200Z,80.20
2022-11-03T06:14:04.740Z,80.16
2022-11-03T06:15:04.737Z,80.07
2022-11-03T06:16:04.732Z,80.27
2022-11-03T06:17:04.710Z,80.61
2022-11-03T06:18:04.729Z,80.07
2022-11-03T06:19:04.725Z,80.07
2022-11-03T06:20:04.671Z,79.86
2022-11-03T06:21:04.658Z,79.66
2022-11-03T06:22:04.680Z,80.16
2022-11-03T06:23:05.056Z,80.07
2022-11-03T06:24:04.692Z,80.07
2022-11-03T06:25:04.634Z,79.96
2022-11-03T06:26:04.603Z,80.07
2022-11-03T06:27:04.590Z,80.27
2022-11-03T06:28:04.643Z,79.96
2022-11-03T06:29:04.566Z,80.57
2022-11-03T06:30:04.551Z,79.96
2022-11-03T06:31:04.551Z,79.86
2022-11-03T06:32:04.529Z,80.02
2022-11-03T06:33:04.820Z,79.86
2022-11-03T06:34:04.723Z,79.55
2022-11-03T06:35:04.522Z,79.62
2022-11-03T06:36:04.516Z,79.41
2022-11-03T06:37:06.430Z,79.45
2022-11-03T06:38:04.460Z,79.41
2022-11-03T06:39:04.458Z,79.41
2022-11-03T06:40:04.458Z,79.52
2022-11-03T06:41:04.442Z,79.72
2022-11-03T06:42:04.612Z,80.02
2022-11-03T06:43:04.874Z,79.82
2022-11-03T06:44:04.388Z,80.37
2022-11-03T06:45:04.389Z,79.86
2022-11-03T06:46:04.450Z,79.93
2022-11-03T06:47:04.413Z,79.72
2022-11-03T06:48:04.393Z,79.72
2022-11-03T06:49:04.360Z,80.07
2022-11-03T06:50:04.350Z,79.93
2022-11-03T06:51:04.315Z,79.82
2022-11-03T06:52:04.317Z,79.62
2022-11-03T06:53:04.668Z,80.33
2022-11-03T06:54:04.283Z,79.93
2022-11-03T06:55:04.352Z,79.62
2022-11-03T06:56:04.254Z,79.99
2022-11-03T06:57:04.263Z,79.72
2022-11-03T06:58:04.307Z,80.02
2022-11-03T06:59:04.226Z,80.33
2022-11-03T07:00:32.527Z,80.29
2022-11-03T07:01:05.316Z,79.38
2022-11-03T07:02:04.320Z,79.72
2022-11-03T07:03:04.455Z,79.82
2022-11-03T07:04:04.176Z,79.82
2022-11-03T07:05:04.178Z,79.89
2022-11-03T07:06:04.214Z,79.79
2022-11-03T07:07:04.136Z,79.79
2022-11-03T07:08:04.124Z,80.02
2022-11-03T07:09:05.056Z,79.68
2022-11-03T07:10:04.136Z,79.89
2022-11-03T07:11:04.112Z,80.02
2022-11-03T07:12:04.072Z,80.13
2022-11-03T07:13:07.055Z,79.11
2022-11-03T07:14:04.069Z,79.11
2022-11-03T07:16:04.060Z,79.79
2022-11-03T07:17:04.024Z,79.79
2022-11-03T07:18:04.200Z,79.58
2022-11-03T07:19:04.010Z,79.99
2022-11-03T07:20:03.982Z,79.68
2022-11-03T07:21:04.001Z,79.27
2022-11-03T07:22:04.029Z,79.68
2022-11-03T07:23:03.983Z,79.79
2022-11-03T07:24:03.938Z,79.58
2022-11-03T07:25:03.927Z,79.58
2022-11-03T07:26:03.920Z,79.68
2022-11-03T07:27:03.906Z,79.48
2022-11-03T07:28:04.340Z,79.68
2022-11-03T07:29:03.880Z,79.99
2022-11-03T07:30:03.882Z,79.79
2022-11-03T07:31:03.860Z,79.89
2022-11-03T07:32:04.505Z,79.95
2022-11-03T07:33:03.848Z,79.75
2022-11-03T07:34:03.844Z,80.05
2022-11-03T07:35:03.811Z,79.85
2022-11-03T07:36:19.197Z,79.75
2022-11-03T07:37:04.860Z,79.95
2022-11-03T07:38:04.057Z,79.95
2022-11-03T07:39:03.803Z,79.75
2022-11-03T07:40:03.796Z,80.26
2022-11-03T07:41:03.747Z,79.34
2022-11-03T07:42:03.735Z,79.24
2022-11-03T07:43:03.724Z,78.59
2022-11-03T07:44:03.708Z,79.64
2022-11-03T07:45:03.699Z,80.26
2022-11-03T07:46:03.785Z,79.75
2022-11-03T07:47:03.681Z,80.36
2022-11-03T07:48:04.633Z,80.22
2022-11-03T07:49:03.652Z,80.22
2022-11-03T07:50:03.712Z,79.61
2022-11-03T07:51:04.527Z,79.41
2022-11-03T07:52:03.702Z,79.20
2022-11-03T07:53:03.699Z,79.20
2022-11-03T07:54:03.623Z,79.41
2022-11-03T07:55:03.587Z,79.00
2022-11-03T07:56:03.642Z,80.22
2022-11-03T07:57:03.569Z,80.11
2022-11-03T07:58:03.857Z,80.11
2022-11-03T07:59:03.544Z,80.42
2022-11-03T08:00:07.083Z,80.42
2022-11-03T08:01:04.559Z,80.22
2022-11-03T08:02:03.876Z,78.28
2022-11-03T08:03:03.738Z,80.22
2022-11-03T08:04:03.581Z,78.28
2022-11-03T08:05:03.471Z,80.42
2022-11-03T08:06:06.070Z,79.71
2022-11-03T08:07:03.532Z,80.18
2022-11-03T08:08:03.620Z,79.27
2022-11-03T08:09:03.488Z,79.50
2022-11-03T08:10:03.489Z,79.16
2022-11-03T08:11:03.537Z,78.96
2022-11-03T08:12:03.396Z,79.27
2022-11-03T08:13:04.270Z,79.27
2022-11-03T08:14:03.381Z,79.37
2022-11-03T08:15:03.372Z,79.57
2022-11-03T08:16:03.421Z,79.47
2022-11-03T08:17:03.335Z,79.27
2022-11-03T08:18:04.089Z,79.33
2022-11-03T08:19:03.321Z,79.63
2022-11-03T08:20:03.327Z,79.53
2022-11-03T08:21:03.293Z,79.43
2022-11-03T08:22:03.315Z,79.02
2022-11-03T08:23:24.700Z,78.72
2022-11-03T08:24:04.256Z,78.62
2022-11-03T08:25:03.249Z,78.62
2022-11-03T08:26:03.277Z,78.92
2022-11-03T08:27:03.219Z,78.48
2022-11-03T08:28:03.305Z,78.72
2022-11-03T08:29:03.216Z,78.72
2022-11-03T08:30:03.203Z,78.68
2022-11-03T08:31:08.028Z,77.87
2022-11-03T08:32:04.187Z,77.87
2022-11-03T08:33:03.354Z,78.64
2022-11-03T08:34:03.372Z,77.94
2022-11-03T08:35:03.156Z,78.34
2022-11-03T08:36:03.119Z,77.83
2022-11-03T08:37:03.115Z,78.00
2022-11-03T08:38:03.159Z,77.80
2022-11-03T08:39:03.087Z,77.90
2022-11-03T08:40:03.219Z,78.20
2022-11-03T08:41:03.105Z,78.10
2022-11-03T08:42:03.088Z,78.17
2022-11-03T08:43:03.046Z,77.76
2022-11-03T08:44:03.099Z,77.97
2022-11-03T08:45:03.022Z,78.06
2022-11-03T08:46:08.383Z,77.97
2022-11-03T08:47:04.078Z,77.97
2022-11-03T08:48:03.027Z,78.06
2022-11-03T08:49:03.543Z,78.06
2022-11-03T08:50:02.983Z,78.06
2022-11-03T08:51:03.567Z,77.97
2022-11-03T08:52:03.003Z,77.93
2022-11-03T08:53:02.930Z,78.27
2022-11-03T08:54:02.933Z,77.32
2022-11-03T08:55:02.908Z,77.42
2022-11-03T08:56:02.905Z,77.42
2022-11-03T08:57:02.898Z,77.93
2022-11-03T08:58:02.962Z,78.03
2022-11-03T08:59:02.861Z,78.13
2022-11-03T09:00:02.843Z,77.52
2022-11-03T09:01:02.880Z,77.48
2022-11-03T09:02:02.962Z,77.45
2022-11-03T09:03:02.816Z,77.65
2022-11-03T09:04:02.970Z,77.65
2022-11-03T09:05:02.787Z,77.75
2022-11-03T09:06:03.545Z,77.61
2022-11-03T09:07:02.786Z,77.61
2022-11-03T09:10:21.082Z,77.65
2022-11-03T09:11:03.784Z,77.55
2022-11-03T09:12:02.710Z,78.36
2022-11-03T09:13:02.695Z,78.66
2022-11-03T09:14:03.592Z,78.36
2022-11-03T09:15:02.684Z,78.36
2022-11-03T09:16:02.664Z,78.16
2022-11-03T09:18:02.644Z,78.22
2022-11-03T09:19:02.633Z,78.02
2022-11-03T09:20:02.642Z,78.12
2022-11-03T09:21:02.652Z,78.12
2022-11-03T09:22:02.592Z,78.12
2022-11-03T09:23:02.591Z,78.02
2022-11-03T09:24:02.579Z,78.02
2022-11-03T09:25:02.588Z,78.42
2022-11-03T09:26:02.548Z,78.73
2022-11-03T09:27:02.715Z,78.93
2022-11-03T09:28:02.626Z,79.34
2022-11-03T09:29:03.059Z,79.13
2022-11-03T09:30:14.291Z,79.03
2022-11-03T09:31:03.502Z,79.03
2022-11-03T09:32:02.489Z,79.85
2022-11-03T09:33:02.515Z,78.53
2022-11-03T09:34:02.527Z,79.34
2022-11-03T09:35:02.475Z,79.38
2022-11-03T09:36:03.044Z,79.44
2022-11-03T09:37:02.989Z,79.24
2022-11-03T09:38:02.417Z,79.58
2022-11-03T09:39:02.433Z,79.38
2022-11-03T09:40:02.399Z,79.47
2022-11-03T09:41:02.425Z,79.27
2022-11-03T09:42:02.371Z,79.47
2022-11-03T09:43:02.377Z,79.27
2022-11-03T09:44:03.116Z,79.38
2022-11-03T09:45:02.370Z,79.58
2022-11-03T09:46:02.553Z,79.27
2022-11-03T09:47:02.315Z,79.27
2022-11-03T09:48:02.316Z,79.27
2022-11-03T09:49:02.290Z,79.27
2022-11-03T09:50:02.287Z,79.47
2022-11-03T09:51:02.305Z,79.07
2022-11-03T09:52:02.257Z,79.61
2022-11-03T09:53:02.241Z,79.47
2022-11-03T09:54:02.265Z,79.38
2022-11-03T09:55:02.217Z,79.27
2022-11-03T09:56:02.210Z,79.27
2022-11-03T09:57:02.220Z,79.17
2022-11-03T09:58:03.211Z,79.21
2022-11-03T09:59:02.222Z,79.21
2022-11-03T10:00:03.087Z,79.17
2022-11-03T10:01:02.235Z,79.41
2022-11-03T10:02:03.319Z,79.41
2022-11-03T10:03:02.163Z,79.21
2022-11-03T10:04:02.112Z,79.21
2022-11-03T10:05:06.830Z,79.14
2022-11-03T10:06:03.095Z,79.25
2022-11-03T10:07:02.089Z,79.55
2022-11-03T10:08:02.157Z,79.35
2022-11-03T10:09:02.071Z,79.00
2022-11-03T10:10:02.050Z,79.11
2022-11-03T10:11:02.033Z,79.00
2022-11-03T10:12:02.028Z,78.80
2022-11-03T10:13:02.023Z,78.91
2022-11-03T10:14:02.000Z,79.00
2022-11-03T10:15:02.038Z,79.31
2022-11-03T10:16:01.977Z,79.27
2022-11-03T10:17:01.968Z,79.38
2022-11-03T10:18:01.999Z,79.38
2022-11-03T10:19:01.957Z,79.27
2022-11-03T10:20:01.957Z,79.13
2022-11-03T10:21:01.960Z,79.07
2022-11-03T10:22:01.914Z,79.13
2022-11-03T10:23:02.002Z,79.44
2022-11-03T10:24:01.928Z,79.44
2022-11-03T10:25:01.881Z,79.34
2022-11-03T10:26:01.879Z,79.13
2022-11-03T10:27:01.872Z,79.13
2022-11-03T10:28:01.840Z,79.30
2022-11-03T10:29:01.854Z,79.30
2022-11-03T10:30:01.822Z,79.30
2022-11-03T10:31:17.295Z,79.34
2022-11-03T10:32:02.869Z,79.20
2022-11-03T10:33:01.788Z,79.20
2022-11-03T10:34:01.809Z,79.20
2022-11-03T10:35:01.937Z,79.50
2022-11-03T10:36:02.570Z,79.50
2022-11-03T10:37:01.749Z,79.40
2022-11-03T10:38:01.770Z,79.50
2022-11-03T10:39:01.813Z,79.46
2022-11-03T10:40:01.704Z,79.57
2022-11-03T10:41:01.702Z,79.57
2022-11-03T10:42:01.774Z,79.46
2022-11-03T10:43:01.751Z,79.46
2022-11-03T10:44:01.822Z,79.36
2022-11-03T10:45:02.583Z,79.26
2022-11-03T10:46:01.650Z,79.16
2022-11-03T10:47:01.638Z,79.26
2022-11-03T10:48:01.674Z,79.16
2022-11-03T10:49:01.670Z,79.36
2022-11-03T10:50:01.749Z,79.22
2022-11-03T10:51:01.601Z,78.52
2022-11-03T10:52:01.571Z,79.13
2022-11-03T10:53:01.570Z,79.13
2022-11-03T10:54:01.561Z,79.13
2022-11-03T10:55:01.545Z,79.53
2022-11-03T10:56:01.576Z,79.83
2022-11-03T10:57:01.516Z,79.08
2022-11-03T10:58:01.508Z,79.69
2022-11-03T10:59:01.492Z,78.99
2022-11-03T11:00:01.484Z,78.58
2022-11-03T11:01:01.555Z,78.58
2022-11-03T11:02:01.751Z,78.99
2022-11-03T11:03:02.465Z,79.08
2022-11-03T11:04:02.256Z,78.99
2022-11-03T11:05:01.430Z,78.95
2022-11-03T11:06:01.438Z,78.88
2022-11-03T11:07:01.407Z,78.95
2022-11-03T11:08:03.249Z,78.85
2022-11-03T11:09:01.450Z,79.05
2022-11-03T11:10:01.367Z,78.95
2022-11-03T11:11:01.414Z,79.05
2022-11-03T11:12:01.342Z,79.05
2022-11-03T11:13:01.333Z,78.75
2022-11-03T11:14:01.356Z,78.75
2022-11-03T11:15:01.316Z,78.85
2022-11-03T11:16:01.299Z,78.71
2022-11-03T11:17:01.290Z,78.91
2022-11-03T11:18:01.274Z,79.01
2022-11-03T11:19:01.270Z,78.91
2022-11-03T11:20:01.279Z,78.91
2022-11-03T11:21:01.245Z,78.77
2022-11-03T11:22:01.353Z,78.88
2022-11-03T11:23:01.263Z,78.97
2022-11-03T11:24:01.205Z,78.67
2022-11-03T11:25:01.204Z,78.77
2022-11-03T11:26:01.246Z,78.77
2022-11-03T11:27:01.339Z,78.77
2022-11-03T11:28:01.163Z,78.67
2022-11-03T11:29:01.161Z,78.57
2022-11-03T11:30:01.234Z,78.47
2022-11-03T11:31:01.133Z,78.47
2022-11-03T11:32:01.136Z,78.47
2022-11-03T11:33:01.119Z,78.27
2022-11-03T11:34:01.095Z,78.67
2022-11-03T11:35:01.085Z,78.37
2022-11-03T11:36:01.067Z,78.57
2022-11-03T11:37:01.153Z,78.67
2022-11-03T11:38:01.133Z,78.77
2022-11-03T11:39:01.033Z,78.67
2022-11-03T11:40:01.055Z,78.67
2022-11-03T11:41:01.011Z,78.77
2022-11-03T11:42:01.009Z,78.47
2022-11-03T11:43:00.996Z,78.63
2022-11-03T11:44:01.029Z,78.43
2022-11-03T11:45:00.970Z,78.33
2022-11-03T11:46:00.957Z,78.13
2022-11-03T11:47:00.952Z,78.23
2022-11-03T11:48:00.956Z,78.33
2022-11-03T11:49:00.920Z,78.03
2022-11-03T11:50:00.954Z,78.03
2022-11-03T11:51:00.902Z,78.03
2022-11-03T11:52:00.890Z,78.03
2022-11-03T11:53:00.881Z,77.93
2022-11-03T11:54:17.014Z,77.93
2022-11-03T11:55:01.897Z,78.13
2022-11-03T11:56:00.841Z,78.03
2022-11-03T11:57:00.835Z,77.83
2022-11-03T11:58:00.822Z,77.73
2022-11-03T11:59:00.808Z,77.62
2022-11-03T12:00:00.817Z,77.83
2022-11-03T12:01:00.906Z,77.53
2022-11-03T12:02:03.709Z,77.83
2022-11-03T12:03:00.868Z,77.83
2022-11-03T12:04:00.954Z,77.99
2022-11-03T12:05:00.739Z,77.83
2022-11-03T12:06:00.736Z,77.99
2022-11-03T12:07:00.741Z,77.79
2022-11-03T12:08:00.703Z,77.99
2022-11-03T12:09:00.696Z,77.79
2022-11-03T12:10:00.777Z,77.99
2022-11-03T12:11:00.761Z,77.79
2022-11-03T12:12:05.233Z,77.89
2022-11-03T12:13:01.663Z,77.89
2022-11-03T12:14:00.648Z,77.79
2022-11-03T12:15:00.627Z,77.79
2022-11-03T12:16:00.624Z,77.99
2022-11-03T12:17:00.612Z,77.79
2022-11-03T12:18:00.589Z,77.79
2022-11-03T12:19:00.621Z,77.69
2022-11-03T12:20:00.570Z,77.99
2022-11-03T12:21:00.559Z,77.79
2022-11-03T12:22:00.548Z,77.79
2022-11-03T12:23:00.560Z,77.69
2022-11-03T12:24:00.527Z,77.69
2022-11-03T12:25:00.703Z,77.89
2022-11-03T12:26:00.529Z,77.69
2022-11-03T12:27:00.516Z,77.79
2022-11-03T12:28:01.097Z,77.89
2022-11-03T12:29:00.470Z,77.99
2022-11-03T12:30:00.464Z,77.99
2022-11-03T12:32:00.459Z,77.99
2022-11-03T12:33:00.458Z,78.09
2022-11-03T12:34:00.410Z,77.95
2022-11-03T12:35:01.110Z,77.75
2022-11-03T12:36:00.387Z,77.99
2022-11-03T12:37:00.432Z,77.89
2022-11-03T12:38:00.365Z,78.09
2022-11-03T12:39:00.356Z,77.89
2022-11-03T12:40:00.401Z,77.89
2022-11-03T12:41:00.334Z,78.09
2022-11-03T12:42:00.353Z,77.89
2022-11-03T12:43:00.361Z,77.95
2022-11-03T12:44:00.381Z,77.79
2022-11-03T12:45:00.296Z,77.89
2022-11-03T12:46:00.303Z,77.86
2022-11-03T12:47:00.270Z,77.86
2022-11-03T12:48:00.258Z,77.89
2022-11-03T12:49:00.270Z,77.79
2022-11-03T12:50:00.232Z,78.09
2022-11-03T12:51:00.216Z,77.79
2022-11-03T12:52:05.275Z,77.99
2022-11-03T12:53:01.198Z,77.89
2022-11-03T12:54:00.207Z,77.79
2022-11-03T12:55:00.191Z,77.79
2022-11-03T12:56:00.163Z,77.79
2022-11-03T12:57:00.143Z,77.99
2022-11-03T12:58:00.158Z,77.99